sensor_id;sensor_type;location;lat;lon;timestamp;pressure;altitude;pressure_sealevel;temperature;humidity
48810;BME280;40070;47.322;18.784;2023-01-28T00:01:39;1003.66;;;2.17;74.21
48810;BME280;40070;47.322;18.784;2023-01-28T00:03:41;1003.66;;;2.18;73.94
48810;BME280;40070;47.322;18.784;2023-01-28T00:05:44;1003.61;;;2.24;73.67
48810;BME280;40070;47.322;18.784;2023-01-28T00:07:47;1003.64;;;2.17;73.91
48810;BME280;40070;47.322;18.784;2023-01-28T00:09:50;1003.64;;;2.27;73.99
48810;BME280;40070;47.322;18.784;2023-01-28T00:11:52;1003.71;;;2.20;73.57
48810;BME280;40070;47.322;18.784;2023-01-28T00:13:54;1003.71;;;2.08;74.37
48810;BME280;40070;47.322;18.784;2023-01-28T00:15:57;1003.74;;;2.20;73.95
48810;BME280;40070;47.322;18.784;2023-01-28T00:18:00;1003.70;;;2.22;73.86
48810;BME280;40070;47.322;18.784;2023-01-28T00:20:03;1003.75;;;2.09;73.93
48810;BME280;40070;47.322;18.784;2023-01-28T00:22:05;1003.73;;;2.01;74.12
48810;BME280;40070;47.322;18.784;2023-01-28T00:24:08;1003.74;;;2.16;74.10
48810;BME280;40070;47.322;18.784;2023-01-28T00:26:11;1003.71;;;2.26;73.75
48810;BME280;40070;47.322;18.784;2023-01-28T00:28:14;1003.77;;;2.19;73.50
48810;BME280;40070;47.322;18.784;2023-01-28T00:30:16;1003.71;;;2.04;74.11
48810;BME280;40070;47.322;18.784;2023-01-28T00:32:19;1003.73;;;2.07;73.97
48810;BME280;40070;47.322;18.784;2023-01-28T00:34:21;1003.74;;;2.18;73.74
48810;BME280;40070;47.322;18.784;2023-01-28T00:36:24;1003.71;;;2.31;73.29
48810;BME280;40070;47.322;18.784;2023-01-28T00:38:27;1003.74;;;2.32;73.03
48810;BME280;40070;47.322;18.784;2023-01-28T00:40:30;1003.74;;;2.29;73.26
48810;BME280;40070;47.322;18.784;2023-01-28T00:42:32;1003.83;;;2.51;72.74
48810;BME280;40070;47.322;18.784;2023-01-28T00:44:34;1003.84;;;2.28;73.13
48810;BME280;40070;47.322;18.784;2023-01-28T00:46:37;1003.86;;;2.17;73.35
48810;BME280;40070;47.322;18.784;2023-01-28T00:48:39;1003.87;;;2.25;73.56
48810;BME280;40070;47.322;18.784;2023-01-28T00:50:43;1003.86;;;2.25;73.41
48810;BME280;40070;47.322;18.784;2023-01-28T00:52:45;1003.93;;;2.50;73.04
48810;BME280;40070;47.322;18.784;2023-01-28T00:54:48;1003.90;;;2.31;73.11
48810;BME280;40070;47.322;18.784;2023-01-28T00:56:50;1003.88;;;2.04;73.80
48810;BME280;40070;47.322;18.784;2023-01-28T00:58:53;1003.98;;;2.15;73.84
48810;BME280;40070;47.322;18.784;2023-01-28T01:00:55;1003.92;;;2.01;74.15
48810;BME280;40070;47.322;18.784;2023-01-28T01:02:58;1003.88;;;1.99;74.33
48810;BME280;40070;47.322;18.784;2023-01-28T01:05:00;1003.90;;;1.98;74.56
48810;BME280;40070;47.322;18.784;2023-01-28T01:07:02;1003.91;;;2.19;74.28
48810;BME280;40070;47.322;18.784;2023-01-28T01:09:06;1003.91;;;2.12;74.60
48810;BME280;40070;47.322;18.784;2023-01-28T01:11:09;1003.90;;;2.09;74.43
48810;BME280;40070;47.322;18.784;2023-01-28T01:13:12;1003.94;;;2.27;73.98
48810;BME280;40070;47.322;18.784;2023-01-28T01:15:14;1003.89;;;2.21;73.81
48810;BME280;40070;47.322;18.784;2023-01-28T01:17:17;1003.89;;;2.13;73.80
48810;BME280;40070;47.322;18.784;2023-01-28T01:19:20;1003.94;;;2.22;73.81
48810;BME280;40070;47.322;18.784;2023-01-28T01:21:23;1003.93;;;2.21;74.01
48810;BME280;40070;47.322;18.784;2023-01-28T01:23:26;1003.91;;;2.30;73.38
48810;BME280;40070;47.322;18.784;2023-01-28T01:25:28;1003.89;;;2.32;73.44
48810;BME280;40070;47.322;18.784;2023-01-28T01:27:31;1003.94;;;2.25;73.49
48810;BME280;40070;47.322;18.784;2023-01-28T01:29:33;1003.95;;;2.16;73.96
48810;BME280;40070;47.322;18.784;2023-01-28T01:31:36;1003.87;;;2.19;73.89
48810;BME280;40070;47.322;18.784;2023-01-28T01:33:38;1003.89;;;2.20;73.88
48810;BME280;40070;47.322;18.784;2023-01-28T01:35:41;1003.94;;;2.15;73.98
48810;BME280;40070;47.322;18.784;2023-01-28T01:37:43;1003.96;;;2.18;74.27
48810;BME280;40070;47.322;18.784;2023-01-28T01:39:45;1003.97;;;1.98;74.70
48810;BME280;40070;47.322;18.784;2023-01-28T01:41:48;1003.92;;;2.01;74.64
48810;BME280;40070;47.322;18.784;2023-01-28T01:43:54;1003.91;;;2.05;74.68
48810;BME280;40070;47.322;18.784;2023-01-28T01:45:58;1003.92;;;1.85;75.11
48810;BME280;40070;47.322;18.784;2023-01-28T01:48:03;1003.93;;;1.92;75.24
48810;BME280;40070;47.322;18.784;2023-01-28T01:50:09;1003.95;;;1.88;75.39
48810;BME280;40070;47.322;18.784;2023-01-28T01:52:15;1003.97;;;1.87;75.38
48810;BME280;40070;47.322;18.784;2023-01-28T01:54:19;1004.02;;;1.85;75.48
48810;BME280;40070;47.322;18.784;2023-01-28T01:56:23;1004.08;;;1.92;75.47
48810;BME280;40070;47.322;18.784;2023-01-28T01:58:29;1004.01;;;2.10;75.13
48810;BME280;40070;47.322;18.784;2023-01-28T02:00:34;1004.02;;;1.99;75.07
48810;BME280;40070;47.322;18.784;2023-01-28T02:02:38;1004.02;;;2.03;75.04
48810;BME280;40070;47.322;18.784;2023-01-28T02:04:42;1004.03;;;1.98;75.46
48810;BME280;40070;47.322;18.784;2023-01-28T02:06:45;1004.05;;;1.95;75.34
48810;BME280;40070;47.322;18.784;2023-01-28T02:08:48;1004.06;;;1.87;75.95
48810;BME280;40070;47.322;18.784;2023-01-28T02:10:54;1004.06;;;1.74;76.31
48810;BME280;40070;47.322;18.784;2023-01-28T02:12:57;1004.07;;;1.81;76.16
48810;BME280;40070;47.322;18.784;2023-01-28T02:15:07;1004.05;;;1.81;76.35
48810;BME280;40070;47.322;18.784;2023-01-28T02:17:10;1004.07;;;1.95;75.86
48810;BME280;40070;47.322;18.784;2023-01-28T02:19:12;1004.05;;;2.09;75.27
48810;BME280;40070;47.322;18.784;2023-01-28T02:28:12;1004.10;;;2.00;75.54
48810;BME280;40070;47.322;18.784;2023-01-28T02:30:28;1004.11;;;1.97;75.84
48810;BME280;40070;47.322;18.784;2023-01-28T02:32:35;1004.07;;;1.83;75.79
48810;BME280;40070;47.322;18.784;2023-01-28T02:34:42;1004.07;;;2.02;75.73
48810;BME280;40070;47.322;18.784;2023-01-28T02:37:04;1004.04;;;1.77;75.97
48810;BME280;40070;47.322;18.784;2023-01-28T02:39:12;1003.98;;;2.07;75.97
48810;BME280;40070;47.322;18.784;2023-01-28T02:41:21;1004.00;;;1.96;75.61
48810;BME280;40070;47.322;18.784;2023-01-28T02:43:36;1004.00;;;1.99;75.83
48810;BME280;40070;47.322;18.784;2023-01-28T02:45:39;1003.97;;;2.02;75.63
48810;BME280;40070;47.322;18.784;2023-01-28T02:47:41;1003.97;;;1.95;75.54
48810;BME280;40070;47.322;18.784;2023-01-28T02:49:46;1003.99;;;2.18;75.45
48810;BME280;40070;47.322;18.784;2023-01-28T02:51:54;1003.97;;;2.08;75.08
48810;BME280;40070;47.322;18.784;2023-01-28T02:54:11;1003.90;;;1.99;75.57
48810;BME280;40070;47.322;18.784;2023-01-28T02:56:18;1004.02;;;1.84;75.86
48810;BME280;40070;47.322;18.784;2023-01-28T03:00:44;1003.95;;;1.93;75.88
48810;BME280;40070;47.322;18.784;2023-01-28T03:02:51;1003.90;;;1.93;75.96
48810;BME280;40070;47.322;18.784;2023-01-28T03:04:59;1003.93;;;1.87;76.17
48810;BME280;40070;47.322;18.784;2023-01-28T03:07:05;1003.96;;;1.88;76.34
48810;BME280;40070;47.322;18.784;2023-01-28T03:09:09;1003.97;;;1.83;76.29
48810;BME280;40070;47.322;18.784;2023-01-28T03:11:13;1004.01;;;1.82;76.09
48810;BME280;40070;47.322;18.784;2023-01-28T03:13:15;1004.03;;;1.93;76.25
48810;BME280;40070;47.322;18.784;2023-01-28T03:15:19;1004.01;;;1.86;76.04
48810;BME280;40070;47.322;18.784;2023-01-28T03:17:23;1004.02;;;1.82;76.04
48810;BME280;40070;47.322;18.784;2023-01-28T03:19:27;1004.05;;;1.89;75.88
48810;BME280;40070;47.322;18.784;2023-01-28T03:21:37;1004.02;;;1.82;76.25
48810;BME280;40070;47.322;18.784;2023-01-28T03:24:04;1004.02;;;1.93;76.13
48810;BME280;40070;47.322;18.784;2023-01-28T03:25:57;1004.06;;;1.58;76.51
48810;BME280;40070;47.322;18.784;2023-01-28T03:28:01;1004.09;;;1.63;76.57
48810;BME280;40070;47.322;18.784;2023-01-28T03:30:06;1004.04;;;1.76;76.41
48810;BME280;40070;47.322;18.784;2023-01-28T03:32:10;1004.05;;;1.84;75.97
48810;BME280;40070;47.322;18.784;2023-01-28T03:34:13;1004.04;;;1.82;76.12
48810;BME280;40070;47.322;18.784;2023-01-28T03:36:15;1004.05;;;1.86;76.20
48810;BME280;40070;47.322;18.784;2023-01-28T03:38:18;1004.05;;;1.88;75.62
48810;BME280;40070;47.322;18.784;2023-01-28T03:40:21;1004.04;;;1.91;75.68
48810;BME280;40070;47.322;18.784;2023-01-28T03:42:23;1004.04;;;1.75;75.63
48810;BME280;40070;47.322;18.784;2023-01-28T03:44:26;1004.05;;;1.85;75.88
48810;BME280;40070;47.322;18.784;2023-01-28T03:46:28;1004.12;;;1.79;75.89
48810;BME280;40070;47.322;18.784;2023-01-28T03:48:30;1004.10;;;2.00;75.15
48810;BME280;40070;47.322;18.784;2023-01-28T03:50:33;1004.11;;;1.85;75.56
48810;BME280;40070;47.322;18.784;2023-01-28T03:52:35;1004.12;;;1.89;75.43
48810;BME280;40070;47.322;18.784;2023-01-28T03:54:38;1004.17;;;1.98;75.02
48810;BME280;40070;47.322;18.784;2023-01-28T03:56:40;1004.17;;;1.82;75.32
48810;BME280;40070;47.322;18.784;2023-01-28T03:58:42;1004.15;;;1.83;75.51
48810;BME280;40070;47.322;18.784;2023-01-28T04:00:45;1004.19;;;1.84;75.67
48810;BME280;40070;47.322;18.784;2023-01-28T04:02:47;1004.19;;;2.00;75.01
48810;BME280;40070;47.322;18.784;2023-01-28T04:04:50;1004.18;;;1.80;75.30
48810;BME280;40070;47.322;18.784;2023-01-28T04:06:53;1004.16;;;1.87;75.19
48810;BME280;40070;47.322;18.784;2023-01-28T04:08:55;1004.16;;;1.83;75.36
48810;BME280;40070;47.322;18.784;2023-01-28T04:10:58;1004.18;;;1.73;75.90
48810;BME280;40070;47.322;18.784;2023-01-28T04:13:00;1004.21;;;1.70;75.65
48810;BME280;40070;47.322;18.784;2023-01-28T04:15:03;1004.20;;;1.71;75.87
48810;BME280;40070;47.322;18.784;2023-01-28T04:17:06;1004.18;;;1.69;75.92
48810;BME280;40070;47.322;18.784;2023-01-28T04:19:08;1004.19;;;1.83;75.29
48810;BME280;40070;47.322;18.784;2023-01-28T04:21:11;1004.16;;;1.76;75.47
48810;BME280;40070;47.322;18.784;2023-01-28T04:23:13;1004.12;;;1.69;75.68
48810;BME280;40070;47.322;18.784;2023-01-28T04:25:16;1004.15;;;1.74;75.55
48810;BME280;40070;47.322;18.784;2023-01-28T04:27:18;1004.25;;;1.43;76.70
48810;BME280;40070;47.322;18.784;2023-01-28T04:29:20;1004.24;;;1.59;76.39
48810;BME280;40070;47.322;18.784;2023-01-28T04:31:23;1004.23;;;1.62;76.19
48810;BME280;40070;47.322;18.784;2023-01-28T04:33:25;1004.26;;;1.62;76.07
48810;BME280;40070;47.322;18.784;2023-01-28T04:35:27;1004.31;;;1.52;76.29
48810;BME280;40070;47.322;18.784;2023-01-28T04:37:30;1004.31;;;1.62;76.34
48810;BME280;40070;47.322;18.784;2023-01-28T04:39:32;1004.34;;;1.57;76.19
48810;BME280;40070;47.322;18.784;2023-01-28T04:41:34;1004.40;;;1.58;76.31
48810;BME280;40070;47.322;18.784;2023-01-28T04:43:37;1004.37;;;1.67;75.90
48810;BME280;40070;47.322;18.784;2023-01-28T04:45:39;1004.41;;;1.49;76.63
48810;BME280;40070;47.322;18.784;2023-01-28T04:47:41;1004.37;;;1.50;76.44
48810;BME280;40070;47.322;18.784;2023-01-28T04:49:44;1004.40;;;1.56;76.43
48810;BME280;40070;47.322;18.784;2023-01-28T04:51:46;1004.35;;;1.54;76.32
48810;BME280;40070;47.322;18.784;2023-01-28T04:53:48;1004.38;;;1.68;76.03
48810;BME280;40070;47.322;18.784;2023-01-28T04:55:51;1004.39;;;1.53;76.14
48810;BME280;40070;47.322;18.784;2023-01-28T04:57:53;1004.40;;;1.45;76.60
48810;BME280;40070;47.322;18.784;2023-01-28T04:59:55;1004.42;;;1.56;76.75
48810;BME280;40070;47.322;18.784;2023-01-28T05:01:58;1004.45;;;1.63;76.45
48810;BME280;40070;47.322;18.784;2023-01-28T05:04:00;1004.51;;;1.52;76.59
48810;BME280;40070;47.322;18.784;2023-01-28T05:06:03;1004.53;;;1.46;76.82
48810;BME280;40070;47.322;18.784;2023-01-28T05:08:05;1004.49;;;1.58;76.54
48810;BME280;40070;47.322;18.784;2023-01-28T05:10:08;1004.55;;;1.65;75.98
48810;BME280;40070;47.322;18.784;2023-01-28T05:12:10;1004.55;;;1.71;75.95
48810;BME280;40070;47.322;18.784;2023-01-28T05:14:12;1004.54;;;1.59;76.12
48810;BME280;40070;47.322;18.784;2023-01-28T05:16:15;1004.58;;;1.49;76.41
48810;BME280;40070;47.322;18.784;2023-01-28T05:18:17;1004.56;;;1.61;76.25
48810;BME280;40070;47.322;18.784;2023-01-28T05:20:19;1004.57;;;1.52;76.34
48810;BME280;40070;47.322;18.784;2023-01-28T05:22:22;1004.59;;;1.77;75.86
48810;BME280;40070;47.322;18.784;2023-01-28T05:24:24;1004.61;;;1.65;76.12
48810;BME280;40070;47.322;18.784;2023-01-28T05:26:26;1004.59;;;1.80;75.80
48810;BME280;40070;47.322;18.784;2023-01-28T05:28:29;1004.62;;;1.52;76.13
48810;BME280;40070;47.322;18.784;2023-01-28T05:30:31;1004.65;;;1.70;75.99
48810;BME280;40070;47.322;18.784;2023-01-28T05:32:33;1004.65;;;1.69;75.84
48810;BME280;40070;47.322;18.784;2023-01-28T05:34:36;1004.68;;;1.62;75.86
48810;BME280;40070;47.322;18.784;2023-01-28T05:36:38;1004.68;;;1.44;76.56
48810;BME280;40070;47.322;18.784;2023-01-28T05:38:40;1004.77;;;1.67;76.20
48810;BME280;40070;47.322;18.784;2023-01-28T05:40:43;1004.76;;;1.66;75.83
48810;BME280;40070;47.322;18.784;2023-01-28T05:42:45;1004.73;;;1.55;76.31
48810;BME280;40070;47.322;18.784;2023-01-28T05:44:48;1004.79;;;1.56;76.29
48810;BME280;40070;47.322;18.784;2023-01-28T05:46:50;1004.78;;;1.54;76.58
48810;BME280;40070;47.322;18.784;2023-01-28T05:48:52;1004.82;;;1.57;76.36
48810;BME280;40070;47.322;18.784;2023-01-28T05:50:55;1004.83;;;1.48;76.82
48810;BME280;40070;47.322;18.784;2023-01-28T05:52:57;1004.81;;;1.56;76.78
48810;BME280;40070;47.322;18.784;2023-01-28T05:54:59;1004.83;;;1.68;76.70
48810;BME280;40070;47.322;18.784;2023-01-28T05:57:02;1004.88;;;1.57;76.76
48810;BME280;40070;47.322;18.784;2023-01-28T05:59:04;1004.84;;;1.61;76.88
48810;BME280;40070;47.322;18.784;2023-01-28T06:01:07;1004.84;;;1.69;76.34
48810;BME280;40070;47.322;18.784;2023-01-28T06:03:09;1004.85;;;1.76;76.15
48810;BME280;40070;47.322;18.784;2023-01-28T06:05:12;1004.90;;;1.67;76.39
48810;BME280;40070;47.322;18.784;2023-01-28T06:07:14;1004.90;;;1.74;76.01
48810;BME280;40070;47.322;18.784;2023-01-28T06:09:16;1004.93;;;1.68;76.07
48810;BME280;40070;47.322;18.784;2023-01-28T06:11:19;1004.91;;;1.77;76.07
48810;BME280;40070;47.322;18.784;2023-01-28T06:13:21;1004.93;;;1.94;75.61
48810;BME280;40070;47.322;18.784;2023-01-28T06:15:23;1004.95;;;1.78;75.82
48810;BME280;40070;47.322;18.784;2023-01-28T06:17:26;1004.92;;;2.00;75.14
48810;BME280;40070;47.322;18.784;2023-01-28T06:19:28;1004.99;;;1.81;75.87
48810;BME280;40070;47.322;18.784;2023-01-28T06:21:30;1004.98;;;1.79;75.52
48810;BME280;40070;47.322;18.784;2023-01-28T06:23:33;1005.03;;;1.78;75.68
48810;BME280;40070;47.322;18.784;2023-01-28T06:25:35;1005.04;;;1.98;75.07
48810;BME280;40070;47.322;18.784;2023-01-28T06:27:37;1005.07;;;1.81;75.48
48810;BME280;40070;47.322;18.784;2023-01-28T06:29:40;1005.04;;;1.85;75.33
48810;BME280;40070;47.322;18.784;2023-01-28T06:31:42;1005.11;;;1.73;75.83
48810;BME280;40070;47.322;18.784;2023-01-28T06:33:44;1005.10;;;1.69;76.11
48810;BME280;40070;47.322;18.784;2023-01-28T06:35:47;1005.15;;;1.66;75.98
48810;BME280;40070;47.322;18.784;2023-01-28T06:37:49;1005.18;;;1.68;76.02
48810;BME280;40070;47.322;18.784;2023-01-28T06:39:52;1005.19;;;1.60;75.95
48810;BME280;40070;47.322;18.784;2023-01-28T06:41:54;1005.23;;;1.62;76.00
48810;BME280;40070;47.322;18.784;2023-01-28T06:43:56;1005.27;;;1.73;75.75
48810;BME280;40070;47.322;18.784;2023-01-28T06:45:59;1005.30;;;1.62;75.94
48810;BME280;40070;47.322;18.784;2023-01-28T06:48:01;1005.35;;;1.77;76.01
48810;BME280;40070;47.322;18.784;2023-01-28T06:50:04;1005.30;;;1.82;75.44
48810;BME280;40070;47.322;18.784;2023-01-28T06:52:06;1005.38;;;1.69;75.65
48810;BME280;40070;47.322;18.784;2023-01-28T06:54:09;1005.38;;;1.66;75.65
48810;BME280;40070;47.322;18.784;2023-01-28T06:56:11;1005.43;;;1.55;75.94
48810;BME280;40070;47.322;18.784;2023-01-28T06:58:13;1005.45;;;1.39;76.50
48810;BME280;40070;47.322;18.784;2023-01-28T07:00:16;1005.51;;;1.43;76.42
48810;BME280;40070;47.322;18.784;2023-01-28T07:02:18;1005.52;;;1.42;76.39
48810;BME280;40070;47.322;18.784;2023-01-28T07:04:21;1005.53;;;1.49;76.29
48810;BME280;40070;47.322;18.784;2023-01-28T07:06:23;1005.53;;;1.43;76.46
48810;BME280;40070;47.322;18.784;2023-01-28T07:08:25;1005.57;;;1.57;76.17
48810;BME280;40070;47.322;18.784;2023-01-28T07:10:28;1005.60;;;1.52;76.27
48810;BME280;40070;47.322;18.784;2023-01-28T07:12:30;1005.60;;;1.49;76.20
48810;BME280;40070;47.322;18.784;2023-01-28T07:14:33;1005.57;;;1.39;76.55
48810;BME280;40070;47.322;18.784;2023-01-28T07:16:35;1005.59;;;1.37;76.47
48810;BME280;40070;47.322;18.784;2023-01-28T07:18:37;1005.61;;;1.41;76.56
48810;BME280;40070;47.322;18.784;2023-01-28T07:20:40;1005.63;;;1.36;76.95
48810;BME280;40070;47.322;18.784;2023-01-28T07:22:42;1005.68;;;1.48;76.46
48810;BME280;40070;47.322;18.784;2023-01-28T07:24:45;1005.66;;;1.43;76.33
48810;BME280;40070;47.322;18.784;2023-01-28T07:26:47;1005.67;;;1.53;76.47
48810;BME280;40070;47.322;18.784;2023-01-28T07:28:49;1005.70;;;1.50;76.34
48810;BME280;40070;47.322;18.784;2023-01-28T07:30:52;1005.68;;;1.73;76.05
48810;BME280;40070;47.322;18.784;2023-01-28T07:32:55;1005.71;;;1.59;76.08
48810;BME280;40070;47.322;18.784;2023-01-28T07:34:57;1005.74;;;1.63;75.78
48810;BME280;40070;47.322;18.784;2023-01-28T07:37:00;1005.70;;;1.59;76.03
48810;BME280;40070;47.322;18.784;2023-01-28T07:39:02;1005.70;;;1.52;76.36
48810;BME280;40070;47.322;18.784;2023-01-28T07:41:04;1005.69;;;1.51;76.28
48810;BME280;40070;47.322;18.784;2023-01-28T07:43:07;1005.69;;;1.69;76.31
48810;BME280;40070;47.322;18.784;2023-01-28T07:45:10;1005.70;;;1.65;76.31
48810;BME280;40070;47.322;18.784;2023-01-28T07:47:12;1005.77;;;1.70;76.10
48810;BME280;40070;47.322;18.784;2023-01-28T07:49:14;1005.71;;;1.75;76.13
48810;BME280;40070;47.322;18.784;2023-01-28T07:51:17;1005.72;;;1.60;76.40
48810;BME280;40070;47.322;18.784;2023-01-28T07:53:19;1005.72;;;1.82;76.13
48810;BME280;40070;47.322;18.784;2023-01-28T07:55:22;1005.70;;;1.81;75.54
48810;BME280;40070;47.322;18.784;2023-01-28T07:57:24;1005.75;;;1.83;75.50
48810;BME280;40070;47.322;18.784;2023-01-28T07:59:26;1005.76;;;1.86;75.42
48810;BME280;40070;47.322;18.784;2023-01-28T08:01:29;1005.86;;;1.74;75.63
48810;BME280;40070;47.322;18.784;2023-01-28T08:03:31;1005.87;;;1.75;75.76
48810;BME280;40070;47.322;18.784;2023-01-28T08:05:46;1005.86;;;1.79;75.58
48810;BME280;40070;47.322;18.784;2023-01-28T08:07:49;1005.85;;;1.79;75.56
48810;BME280;40070;47.322;18.784;2023-01-28T08:09:51;1005.92;;;1.77;75.48
48810;BME280;40070;47.322;18.784;2023-01-28T08:11:53;1005.94;;;1.85;75.84
48810;BME280;40070;47.322;18.784;2023-01-28T08:13:56;1005.95;;;1.58;76.18
48810;BME280;40070;47.322;18.784;2023-01-28T08:15:58;1005.93;;;1.76;75.97
48810;BME280;40070;47.322;18.784;2023-01-28T08:18:01;1005.91;;;1.79;75.48
48810;BME280;40070;47.322;18.784;2023-01-28T08:20:04;1005.90;;;1.75;75.76
48810;BME280;40070;47.322;18.784;2023-01-28T08:22:06;1005.89;;;1.78;75.83
48810;BME280;40070;47.322;18.784;2023-01-28T08:24:09;1005.95;;;1.63;76.11
48810;BME280;40070;47.322;18.784;2023-01-28T08:26:11;1005.94;;;1.79;75.90
48810;BME280;40070;47.322;18.784;2023-01-28T08:28:14;1005.91;;;1.86;75.84
48810;BME280;40070;47.322;18.784;2023-01-28T08:30:17;1005.98;;;2.11;75.36
48810;BME280;40070;47.322;18.784;2023-01-28T08:32:20;1005.97;;;1.86;75.09
48810;BME280;40070;47.322;18.784;2023-01-28T08:34:22;1006.00;;;1.93;75.79
48810;BME280;40070;47.322;18.784;2023-01-28T08:36:24;1006.02;;;2.06;75.48
48810;BME280;40070;47.322;18.784;2023-01-28T08:38:27;1006.03;;;2.15;74.91
48810;BME280;40070;47.322;18.784;2023-01-28T08:40:29;1006.01;;;2.04;75.67
48810;BME280;40070;47.322;18.784;2023-01-28T08:42:32;1006.01;;;1.85;75.81
48810;BME280;40070;47.322;18.784;2023-01-28T08:44:34;1006.03;;;2.01;75.96
48810;BME280;40070;47.322;18.784;2023-01-28T08:46:36;1006.00;;;1.99;75.05
48810;BME280;40070;47.322;18.784;2023-01-28T08:48:39;1006.07;;;1.82;75.80
48810;BME280;40070;47.322;18.784;2023-01-28T08:50:41;1006.09;;;1.72;75.71
48810;BME280;40070;47.322;18.784;2023-01-28T08:52:45;1006.01;;;1.90;75.40
48810;BME280;40070;47.322;18.784;2023-01-28T08:54:47;1006.10;;;1.76;75.70
48810;BME280;40070;47.322;18.784;2023-01-28T08:56:49;1006.11;;;1.92;75.26
48810;BME280;40070;47.322;18.784;2023-01-28T08:58:52;1006.15;;;1.85;75.27
48810;BME280;40070;47.322;18.784;2023-01-28T09:00:54;1006.17;;;1.95;74.71
48810;BME280;40070;47.322;18.784;2023-01-28T09:02:57;1006.21;;;2.04;74.97
48810;BME280;40070;47.322;18.784;2023-01-28T09:04:59;1006.22;;;1.88;74.93
48810;BME280;40070;47.322;18.784;2023-01-28T09:07:01;1006.23;;;2.00;75.10
48810;BME280;40070;47.322;18.784;2023-01-28T09:09:04;1006.26;;;2.16;74.77
48810;BME280;40070;47.322;18.784;2023-01-28T09:11:06;1006.25;;;2.25;74.10
48810;BME280;40070;47.322;18.784;2023-01-28T09:13:13;1006.28;;;2.36;73.46
48810;BME280;40070;47.322;18.784;2023-01-28T09:15:16;1006.27;;;1.95;74.18
48810;BME280;40070;47.322;18.784;2023-01-28T09:17:19;1006.32;;;2.13;74.09
48810;BME280;40070;47.322;18.784;2023-01-28T09:19:21;1006.31;;;2.10;73.85
48810;BME280;40070;47.322;18.784;2023-01-28T09:21:24;1006.32;;;1.86;74.66
48810;BME280;40070;47.322;18.784;2023-01-28T09:23:26;1006.30;;;2.04;73.91
48810;BME280;40070;47.322;18.784;2023-01-28T09:25:28;1006.31;;;1.99;74.24
48810;BME280;40070;47.322;18.784;2023-01-28T09:27:31;1006.39;;;2.10;74.52
48810;BME280;40070;47.322;18.784;2023-01-28T09:29:33;1006.35;;;2.06;74.18
48810;BME280;40070;47.322;18.784;2023-01-28T09:31:36;1006.33;;;2.22;73.71
48810;BME280;40070;47.322;18.784;2023-01-28T09:33:38;1006.37;;;2.26;73.82
48810;BME280;40070;47.322;18.784;2023-01-28T09:35:41;1006.39;;;2.25;73.66
48810;BME280;40070;47.322;18.784;2023-01-28T09:37:44;1006.37;;;2.37;73.63
48810;BME280;40070;47.322;18.784;2023-01-28T09:39:46;1006.36;;;2.21;74.17
48810;BME280;40070;47.322;18.784;2023-01-28T09:44:22;1006.36;;;2.22;74.63
48810;BME280;40070;47.322;18.784;2023-01-28T09:46:30;1006.38;;;2.05;74.90
48810;BME280;40070;47.322;18.784;2023-01-28T09:48:34;1006.39;;;2.20;74.89
48810;BME280;40070;47.322;18.784;2023-01-28T09:50:40;1006.40;;;2.26;75.09
48810;BME280;40070;47.322;18.784;2023-01-28T09:52:43;1006.38;;;2.60;74.45
48810;BME280;40070;47.322;18.784;2023-01-28T09:54:58;1006.36;;;2.72;73.78
48810;BME280;40070;47.322;18.784;2023-01-28T09:57:04;1006.40;;;2.59;74.01
48810;BME280;40070;47.322;18.784;2023-01-28T09:59:21;1006.37;;;2.69;73.68
48810;BME280;40070;47.322;18.784;2023-01-28T10:03:53;1006.36;;;2.31;74.48
48810;BME280;40070;47.322;18.784;2023-01-28T10:08:21;1006.32;;;2.61;73.83
48810;BME280;40070;47.322;18.784;2023-01-28T10:13:03;1006.29;;;2.46;73.98
48810;BME280;40070;47.322;18.784;2023-01-28T10:17:30;1006.27;;;2.78;73.38
48810;BME280;40070;47.322;18.784;2023-01-28T10:19:57;1006.31;;;2.79;73.36
48810;BME280;40070;47.322;18.784;2023-01-28T10:22:01;1006.30;;;2.82;73.31
48810;BME280;40070;47.322;18.784;2023-01-28T10:24:09;1006.30;;;2.73;73.44
48810;BME280;40070;47.322;18.784;2023-01-28T10:26:19;1006.30;;;2.67;72.68
48810;BME280;40070;47.322;18.784;2023-01-28T10:28:23;1006.26;;;2.59;73.08
48810;BME280;40070;47.322;18.784;2023-01-28T10:30:29;1006.24;;;2.55;73.44
48810;BME280;40070;47.322;18.784;2023-01-28T10:32:32;1006.28;;;2.64;73.04
48810;BME280;40070;47.322;18.784;2023-01-28T10:34:35;1006.28;;;2.91;72.67
48810;BME280;40070;47.322;18.784;2023-01-28T10:36:38;1006.30;;;2.99;71.83
48810;BME280;40070;47.322;18.784;2023-01-28T10:38:40;1006.27;;;3.16;71.81
48810;BME280;40070;47.322;18.784;2023-01-28T10:40:43;1006.29;;;3.07;71.56
48810;BME280;40070;47.322;18.784;2023-01-28T10:42:45;1006.26;;;3.06;71.46
48810;BME280;40070;47.322;18.784;2023-01-28T10:44:47;1006.30;;;3.11;71.41
48810;BME280;40070;47.322;18.784;2023-01-28T10:46:50;1006.29;;;3.01;71.39
48810;BME280;40070;47.322;18.784;2023-01-28T10:49:06;1006.29;;;3.18;71.25
48810;BME280;40070;47.322;18.784;2023-01-28T10:51:08;1006.26;;;3.30;70.79
48810;BME280;40070;47.322;18.784;2023-01-28T10:53:11;1006.26;;;3.48;70.70
48810;BME280;40070;47.322;18.784;2023-01-28T10:55:13;1006.19;;;3.43;70.37
48810;BME280;40070;47.322;18.784;2023-01-28T10:57:16;1006.21;;;3.54;70.03
48810;BME280;40070;47.322;18.784;2023-01-28T11:01:51;1006.21;;;3.61;70.02
48810;BME280;40070;47.322;18.784;2023-01-28T11:03:55;1006.24;;;3.64;69.60
48810;BME280;40070;47.322;18.784;2023-01-28T11:05:59;1006.24;;;3.56;69.59
48810;BME280;40070;47.322;18.784;2023-01-28T11:08:05;1006.24;;;3.37;69.98
48810;BME280;40070;47.322;18.784;2023-01-28T11:12:30;1006.24;;;3.58;70.14
48810;BME280;40070;47.322;18.784;2023-01-28T11:14:33;1006.24;;;3.43;70.25
48810;BME280;40070;47.322;18.784;2023-01-28T11:16:35;1006.23;;;3.34;70.78
48810;BME280;40070;47.322;18.784;2023-01-28T11:18:46;1006.18;;;3.67;70.20
48810;BME280;40070;47.322;18.784;2023-01-28T11:20:59;1006.22;;;3.72;70.01
48810;BME280;40070;47.322;18.784;2023-01-28T11:23:02;1006.21;;;3.83;69.61
48810;BME280;40070;47.322;18.784;2023-01-28T11:25:13;1006.19;;;3.78;69.80
48810;BME280;40070;47.322;18.784;2023-01-28T11:27:17;1006.19;;;3.72;69.58
48810;BME280;40070;47.322;18.784;2023-01-28T11:29:31;1006.16;;;3.48;69.50